sensor_id;sensor_type;location;lat;lon;timestamp;temperature;humidity
19908;DHT22;10116;53.112;7.356;2022-12-05T00:00:47;25.30;5.20
19908;DHT22;10116;53.112;7.356;2022-12-05T00:03:12;25.30;5.10
19908;DHT22;10116;53.112;7.356;2022-12-05T00:05:41;25.30;5.50
19908;DHT22;10116;53.112;7.356;2022-12-05T00:08:07;25.30;5.40
19908;DHT22;10116;53.112;7.356;2022-12-05T00:10:35;25.30;5.30
19908;DHT22;10116;53.112;7.356;2022-12-05T00:13:01;25.30;5.40
19908;DHT22;10116;53.112;7.356;2022-12-05T00:15:26;25.30;5.00
19908;DHT22;10116;53.112;7.356;2022-12-05T00:17:52;25.30;5.20
19908;DHT22;10116;53.112;7.356;2022-12-05T00:20:17;25.30;5.60
19908;DHT22;10116;53.112;7.356;2022-12-05T00:22:43;25.30;4.90
19908;DHT22;10116;53.112;7.356;2022-12-05T00:25:09;25.30;5.10
19908;DHT22;10116;53.112;7.356;2022-12-05T00:27:35;25.30;5.00
19908;DHT22;10116;53.112;7.356;2022-12-05T00:30:01;25.30;5.30
19908;DHT22;10116;53.112;7.356;2022-12-05T00:32:29;25.30;5.50
19908;DHT22;10116;53.112;7.356;2022-12-05T00:34:55;25.30;5.10
19908;DHT22;10116;53.112;7.356;2022-12-05T00:37:21;25.30;5.50
19908;DHT22;10116;53.112;7.356;2022-12-05T00:39:47;25.20;5.20
19908;DHT22;10116;53.112;7.356;2022-12-05T00:42:12;25.30;5.50
19908;DHT22;10116;53.112;7.356;2022-12-05T00:44:38;25.20;5.50
19908;DHT22;10116;53.112;7.356;2022-12-05T00:47:04;25.20;5.50
19908;DHT22;10116;53.112;7.356;2022-12-05T00:49:29;25.20;5.70
19908;DHT22;10116;53.112;7.356;2022-12-05T00:51:55;25.20;5.10
19908;DHT22;10116;53.112;7.356;2022-12-05T00:54:20;25.20;14.70
19908;DHT22;10116;53.112;7.356;2022-12-05T00:56:46;25.20;5.50
19908;DHT22;10116;53.112;7.356;2022-12-05T00:59:15;25.20;5.40
19908;DHT22;10116;53.112;7.356;2022-12-05T01:01:42;25.20;5.30
19908;DHT22;10116;53.112;7.356;2022-12-05T01:04:13;25.20;5.70
19908;DHT22;10116;53.112;7.356;2022-12-05T01:06:40;25.20;5.70
19908;DHT22;10116;53.112;7.356;2022-12-05T01:09:07;25.20;5.40
19908;DHT22;10116;53.112;7.356;2022-12-05T01:11:33;25.20;5.30
19908;DHT22;10116;53.112;7.356;2022-12-05T01:13:59;25.20;5.30
19908;DHT22;10116;53.112;7.356;2022-12-05T01:16:33;25.20;5.20
19908;DHT22;10116;53.112;7.356;2022-12-05T01:19:02;25.20;5.80
19908;DHT22;10116;53.112;7.356;2022-12-05T01:21:28;25.20;5.60
19908;DHT22;10116;53.112;7.356;2022-12-05T01:23:53;25.20;6.10
19908;DHT22;10116;53.112;7.356;2022-12-05T01:26:21;25.20;5.70
19908;DHT22;10116;53.112;7.356;2022-12-05T01:28:47;25.20;6.20
19908;DHT22;10116;53.112;7.356;2022-12-05T01:33:41;25.20;6.30
19908;DHT22;10116;53.112;7.356;2022-12-05T01:36:10;25.20;6.30
19908;DHT22;10116;53.112;7.356;2022-12-05T01:38:39;25.20;6.00
19908;DHT22;10116;53.112;7.356;2022-12-05T01:41:08;25.20;6.10
19908;DHT22;10116;53.112;7.356;2022-12-05T01:44:01;25.20;6.00
19908;DHT22;10116;53.112;7.356;2022-12-05T01:46:29;25.20;6.00
19908;DHT22;10116;53.112;7.356;2022-12-05T01:51:30;25.20;6.40
19908;DHT22;10116;53.112;7.356;2022-12-05T01:53:57;25.20;6.00
19908;DHT22;10116;53.112;7.356;2022-12-05T01:56:23;25.20;6.70
19908;DHT22;10116;53.112;7.356;2022-12-05T01:58:50;25.20;6.30
19908;DHT22;10116;53.112;7.356;2022-12-05T02:01:17;25.20;6.30
19908;DHT22;10116;53.112;7.356;2022-12-05T02:03:43;25.20;6.60
19908;DHT22;10116;53.112;7.356;2022-12-05T02:06:12;25.20;6.30
19908;DHT22;10116;53.112;7.356;2022-12-05T02:08:38;25.20;6.40
19908;DHT22;10116;53.112;7.356;2022-12-05T02:11:05;25.20;7.20
19908;DHT22;10116;53.112;7.356;2022-12-05T02:16:06;25.20;6.60
19908;DHT22;10116;53.112;7.356;2022-12-05T02:21:21;25.20;6.90
19908;DHT22;10116;53.112;7.356;2022-12-05T02:35:11;25.20;6.80
19908;DHT22;10116;53.112;7.356;2022-12-05T02:37:51;25.20;7.40
19908;DHT22;10116;53.112;7.356;2022-12-05T02:40:30;25.20;7.30
19908;DHT22;10116;53.112;7.356;2022-12-05T02:43:01;25.20;7.20
19908;DHT22;10116;53.112;7.356;2022-12-05T02:45:30;25.20;7.40
19908;DHT22;10116;53.112;7.356;2022-12-05T02:47:58;25.20;7.30
19908;DHT22;10116;53.112;7.356;2022-12-05T02:50:28;25.20;7.20
19908;DHT22;10116;53.112;7.356;2022-12-05T02:52:58;25.20;7.00
19908;DHT22;10116;53.112;7.356;2022-12-05T02:55:26;25.20;7.40
19908;DHT22;10116;53.112;7.356;2022-12-05T02:57:56;25.20;7.60
19908;DHT22;10116;53.112;7.356;2022-12-05T03:00:22;25.20;7.80
19908;DHT22;10116;53.112;7.356;2022-12-05T03:02:51;25.20;7.70
19908;DHT22;10116;53.112;7.356;2022-12-05T03:05:26;25.20;8.10
19908;DHT22;10116;53.112;7.356;2022-12-05T03:07:56;25.20;8.10
19908;DHT22;10116;53.112;7.356;2022-12-05T03:10:25;25.20;7.80
19908;DHT22;10116;53.112;7.356;2022-12-05T03:12:55;25.20;7.50
19908;DHT22;10116;53.112;7.356;2022-12-05T03:15:27;25.20;8.10
19908;DHT22;10116;53.112;7.356;2022-12-05T03:17:59;25.20;8.00
19908;DHT22;10116;53.112;7.356;2022-12-05T03:20:33;25.20;7.70
19908;DHT22;10116;53.112;7.356;2022-12-05T03:23:14;25.20;7.80
19908;DHT22;10116;53.112;7.356;2022-12-05T03:25:53;25.20;8.60
19908;DHT22;10116;53.112;7.356;2022-12-05T03:28:27;25.20;7.90
19908;DHT22;10116;53.112;7.356;2022-12-05T03:30:55;25.20;8.10
19908;DHT22;10116;53.112;7.356;2022-12-05T03:33:26;25.20;8.00
19908;DHT22;10116;53.112;7.356;2022-12-05T03:36:06;25.20;8.10
19908;DHT22;10116;53.112;7.356;2022-12-05T03:38:52;25.20;8.20
19908;DHT22;10116;53.112;7.356;2022-12-05T03:49:20;25.20;8.50
19908;DHT22;10116;53.112;7.356;2022-12-05T03:51:54;25.20;9.20
19908;DHT22;10116;53.112;7.356;2022-12-05T03:54:31;25.20;8.40
19908;DHT22;10116;53.112;7.356;2022-12-05T03:57:41;25.20;8.70
19908;DHT22;10116;53.112;7.356;2022-12-05T04:00:07;25.20;8.90
19908;DHT22;10116;53.112;7.356;2022-12-05T04:07:48;25.20;8.90
19908;DHT22;10116;53.112;7.356;2022-12-05T04:10:21;25.20;8.90
19908;DHT22;10116;53.112;7.356;2022-12-05T04:12:49;25.20;9.30
19908;DHT22;10116;53.112;7.356;2022-12-05T04:15:26;25.20;9.30
19908;DHT22;10116;53.112;7.356;2022-12-05T04:18:14;25.20;9.60
19908;DHT22;10116;53.112;7.356;2022-12-05T04:20:44;25.20;9.40
19908;DHT22;10116;53.112;7.356;2022-12-05T04:23:29;25.20;9.60
19908;DHT22;10116;53.112;7.356;2022-12-05T04:26:02;25.30;9.40
19908;DHT22;10116;53.112;7.356;2022-12-05T04:28:56;25.20;9.70
19908;DHT22;10116;53.112;7.356;2022-12-05T04:31:30;25.30;10.00
19908;DHT22;10116;53.112;7.356;2022-12-05T04:34:01;25.30;10.90
19908;DHT22;10116;53.112;7.356;2022-12-05T04:36:54;25.40;10.90
19908;DHT22;10116;53.112;7.356;2022-12-05T04:39:24;25.50;11.30
19908;DHT22;10116;53.112;7.356;2022-12-05T04:42:00;25.50;12.10
19908;DHT22;10116;53.112;7.356;2022-12-05T04:44:32;25.60;12.20
19908;DHT22;10116;53.112;7.356;2022-12-05T04:47:02;25.60;12.40
19908;DHT22;10116;53.112;7.356;2022-12-05T04:49:30;25.60;12.60
19908;DHT22;10116;53.112;7.356;2022-12-05T04:52:02;25.60;12.50
19908;DHT22;10116;53.112;7.356;2022-12-05T04:54:52;25.60;12.70
19908;DHT22;10116;53.112;7.356;2022-12-05T04:57:41;25.70;12.40
19908;DHT22;10116;53.112;7.356;2022-12-05T05:00:09;25.70;21.90
19908;DHT22;10116;53.112;7.356;2022-12-05T05:05:35;25.70;12.50
19908;DHT22;10116;53.112;7.356;2022-12-05T05:08:01;25.70;12.60
19908;DHT22;10116;53.112;7.356;2022-12-05T05:10:42;25.70;12.90
19908;DHT22;10116;53.112;7.356;2022-12-05T05:13:09;25.70;12.70
19908;DHT22;10116;53.112;7.356;2022-12-05T05:15:34;25.70;12.60
19908;DHT22;10116;53.112;7.356;2022-12-05T05:18:00;25.70;12.80
19908;DHT22;10116;53.112;7.356;2022-12-05T05:20:26;25.70;12.70
19908;DHT22;10116;53.112;7.356;2022-12-05T05:22:53;25.60;12.50
19908;DHT22;10116;53.112;7.356;2022-12-05T05:25:19;25.70;13.10
19908;DHT22;10116;53.112;7.356;2022-12-05T05:27:50;25.70;13.00
19908;DHT22;10116;53.112;7.356;2022-12-05T05:30:17;25.70;12.80
19908;DHT22;10116;53.112;7.356;2022-12-05T05:32:43;25.70;12.70
19908;DHT22;10116;53.112;7.356;2022-12-05T05:35:10;25.70;12.60
19908;DHT22;10116;53.112;7.356;2022-12-05T05:37:37;25.70;22.20
19908;DHT22;10116;53.112;7.356;2022-12-05T05:40:04;25.70;13.60
19908;DHT22;10116;53.112;7.356;2022-12-05T05:42:30;25.80;14.20
19908;DHT22;10116;53.112;7.356;2022-12-05T05:44:56;25.80;13.30
19908;DHT22;10116;53.112;7.356;2022-12-05T05:47:21;25.80;14.20
19908;DHT22;10116;53.112;7.356;2022-12-05T05:49:47;25.90;13.80
19908;DHT22;10116;53.112;7.356;2022-12-05T05:52:12;25.90;14.20
19908;DHT22;10116;53.112;7.356;2022-12-05T05:54:38;25.90;14.20
19908;DHT22;10116;53.112;7.356;2022-12-05T05:57:04;25.90;13.80
19908;DHT22;10116;53.112;7.356;2022-12-05T05:59:29;25.90;14.50
19908;DHT22;10116;53.112;7.356;2022-12-05T06:01:55;25.90;14.20
19908;DHT22;10116;53.112;7.356;2022-12-05T06:04:20;25.90;14.10
19908;DHT22;10116;53.112;7.356;2022-12-05T06:06:46;25.90;14.50
19908;DHT22;10116;53.112;7.356;2022-12-05T06:09:11;25.90;14.20
19908;DHT22;10116;53.112;7.356;2022-12-05T06:11:37;25.90;13.90
19908;DHT22;10116;53.112;7.356;2022-12-05T06:14:03;25.90;14.10
19908;DHT22;10116;53.112;7.356;2022-12-05T06:16:30;25.90;14.00
19908;DHT22;10116;53.112;7.356;2022-12-05T06:18:57;25.90;13.90
19908;DHT22;10116;53.112;7.356;2022-12-05T06:21:23;25.90;14.10
19908;DHT22;10116;53.112;7.356;2022-12-05T06:23:49;25.90;13.90
19908;DHT22;10116;53.112;7.356;2022-12-05T06:26:18;25.90;13.80
19908;DHT22;10116;53.112;7.356;2022-12-05T06:28:45;25.80;13.70
19908;DHT22;10116;53.112;7.356;2022-12-05T06:31:20;25.80;13.80
19908;DHT22;10116;53.112;7.356;2022-12-05T06:33:45;25.80;13.70
19908;DHT22;10116;53.112;7.356;2022-12-05T06:36:14;25.80;13.90
19908;DHT22;10116;53.112;7.356;2022-12-05T06:38:40;25.80;13.60
19908;DHT22;10116;53.112;7.356;2022-12-05T06:41:09;25.80;13.70
19908;DHT22;10116;53.112;7.356;2022-12-05T06:43:35;25.80;14.30
19908;DHT22;10116;53.112;7.356;2022-12-05T06:46:08;25.90;14.30
19908;DHT22;10116;53.112;7.356;2022-12-05T06:48:35;25.90;15.40
19908;DHT22;10116;53.112;7.356;2022-12-05T06:51:01;25.90;15.00
19908;DHT22;10116;53.112;7.356;2022-12-05T06:53:27;25.90;15.10
19908;DHT22;10116;53.112;7.356;2022-12-05T06:58:21;26.00;14.90
19908;DHT22;10116;53.112;7.356;2022-12-05T07:00:46;26.00;15.20
19908;DHT22;10116;53.112;7.356;2022-12-05T07:03:35;26.00;15.30
19908;DHT22;10116;53.112;7.356;2022-12-05T07:06:03;26.00;15.00
19908;DHT22;10116;53.112;7.356;2022-12-05T07:08:28;26.00;15.10
19908;DHT22;10116;53.112;7.356;2022-12-05T07:10:54;26.00;15.20
19908;DHT22;10116;53.112;7.356;2022-12-05T07:13:20;26.00;15.40
19908;DHT22;10116;53.112;7.356;2022-12-05T07:15:46;26.00;15.10
19908;DHT22;10116;53.112;7.356;2022-12-05T07:18:13;26.00;15.80
19908;DHT22;10116;53.112;7.356;2022-12-05T07:20:39;26.00;15.30
19908;DHT22;10116;53.112;7.356;2022-12-05T07:23:04;25.90;15.20
19908;DHT22;10116;53.112;7.356;2022-12-05T07:25:30;26.00;15.60
19908;DHT22;10116;53.112;7.356;2022-12-05T07:27:55;25.90;15.30
19908;DHT22;10116;53.112;7.356;2022-12-05T07:30:21;25.90;15.00
19908;DHT22;10116;53.112;7.356;2022-12-05T07:32:47;25.90;15.50
19908;DHT22;10116;53.112;7.356;2022-12-05T07:35:12;25.90;14.50
19908;DHT22;10116;53.112;7.356;2022-12-05T07:37:38;25.90;14.80
19908;DHT22;10116;53.112;7.356;2022-12-05T07:40:04;25.90;15.60
19908;DHT22;10116;53.112;7.356;2022-12-05T07:42:30;25.90;14.50
19908;DHT22;10116;53.112;7.356;2022-12-05T07:44:55;25.90;14.50
19908;DHT22;10116;53.112;7.356;2022-12-05T07:47:21;25.90;14.90
19908;DHT22;10116;53.112;7.356;2022-12-05T07:49:47;25.90;14.80
19908;DHT22;10116;53.112;7.356;2022-12-05T07:52:12;25.90;15.00
19908;DHT22;10116;53.112;7.356;2022-12-05T07:54:38;25.90;24.30
19908;DHT22;10116;53.112;7.356;2022-12-05T07:57:03;25.90;15.40
19908;DHT22;10116;53.112;7.356;2022-12-05T07:59:29;25.90;15.10
19908;DHT22;10116;53.112;7.356;2022-12-05T08:01:54;25.90;15.20
19908;DHT22;10116;53.112;7.356;2022-12-05T08:04:20;25.90;15.10
19908;DHT22;10116;53.112;7.356;2022-12-05T08:06:46;25.90;15.20
19908;DHT22;10116;53.112;7.356;2022-12-05T08:09:12;25.90;15.10
19908;DHT22;10116;53.112;7.356;2022-12-05T08:11:37;25.90;15.20
19908;DHT22;10116;53.112;7.356;2022-12-05T08:14:04;25.90;15.10
19908;DHT22;10116;53.112;7.356;2022-12-05T08:16:31;25.90;15.00
19908;DHT22;10116;53.112;7.356;2022-12-05T08:19:07;25.90;15.10
19908;DHT22;10116;53.112;7.356;2022-12-05T08:21:34;25.90;14.90
19908;DHT22;10116;53.112;7.356;2022-12-05T08:24:03;25.90;15.00
19908;DHT22;10116;53.112;7.356;2022-12-05T08:26:30;25.90;14.80
19908;DHT22;10116;53.112;7.356;2022-12-05T08:29:02;25.90;14.90
19908;DHT22;10116;53.112;7.356;2022-12-05T08:31:30;25.90;14.80
19908;DHT22;10116;53.112;7.356;2022-12-05T08:33:57;25.90;14.70
19908;DHT22;10116;53.112;7.356;2022-12-05T08:36:23;25.80;14.30
19908;DHT22;10116;53.112;7.356;2022-12-05T08:38:54;25.80;14.50
19908;DHT22;10116;53.112;7.356;2022-12-05T08:41:20;25.80;14.70
19908;DHT22;10116;53.112;7.356;2022-12-05T08:43:45;25.70;14.70
19908;DHT22;10116;53.112;7.356;2022-12-05T08:46:11;25.70;14.40
19908;DHT22;10116;53.112;7.356;2022-12-05T08:48:37;25.70;13.30
19908;DHT22;10116;53.112;7.356;2022-12-05T08:51:08;25.60;13.30
19908;DHT22;10116;53.112;7.356;2022-12-05T08:53:35;25.60;13.60
19908;DHT22;10116;53.112;7.356;2022-12-05T08:56:02;25.60;13.80
19908;DHT22;10116;53.112;7.356;2022-12-05T08:58:28;25.60;13.30
19908;DHT22;10116;53.112;7.356;2022-12-05T09:01:12;25.60;13.50
19908;DHT22;10116;53.112;7.356;2022-12-05T09:03:39;25.60;13.40
19908;DHT22;10116;53.112;7.356;2022-12-05T09:08:35;25.60;13.10
19908;DHT22;10116;53.112;7.356;2022-12-05T09:11:08;25.50;13.10
19908;DHT22;10116;53.112;7.356;2022-12-05T09:13:35;25.50;13.20
19908;DHT22;10116;53.112;7.356;2022-12-05T09:16:08;25.50;13.10
19908;DHT22;10116;53.112;7.356;2022-12-05T09:18:35;25.50;13.40
19908;DHT22;10116;53.112;7.356;2022-12-05T09:23:31;25.50;13.40
19908;DHT22;10116;53.112;7.356;2022-12-05T09:25:57;25.50;13.80
19908;DHT22;10116;53.112;7.356;2022-12-05T09:28:26;25.50;13.80
19908;DHT22;10116;53.112;7.356;2022-12-05T09:30:56;25.50;13.60
19908;DHT22;10116;53.112;7.356;2022-12-05T09:33:22;25.50;13.80
19908;DHT22;10116;53.112;7.356;2022-12-05T09:35:47;25.50;14.00
19908;DHT22;10116;53.112;7.356;2022-12-05T09:38:13;25.40;13.20
19908;DHT22;10116;53.112;7.356;2022-12-05T09:40:42;25.40;13.80
19908;DHT22;10116;53.112;7.356;2022-12-05T09:43:24;25.40;13.60
19908;DHT22;10116;53.112;7.356;2022-12-05T09:46:50;25.40;13.80
19908;DHT22;10116;53.112;7.356;2022-12-05T09:49:08;25.50;14.40
19908;DHT22;10116;53.112;7.356;2022-12-05T09:51:39;25.50;15.10
19908;DHT22;10116;53.112;7.356;2022-12-05T09:54:08;25.50;14.90
19908;DHT22;10116;53.112;7.356;2022-12-05T09:56:34;25.60;15.10
19908;DHT22;10116;53.112;7.356;2022-12-05T09:59:00;25.60;15.00
19908;DHT22;10116;53.112;7.356;2022-12-05T10:01:33;25.60;15.90
19908;DHT22;10116;53.112;7.356;2022-12-05T10:04:15;25.70;15.80
19908;DHT22;10116;53.112;7.356;2022-12-05T10:09:59;25.60;15.40
19908;DHT22;10116;53.112;7.356;2022-12-05T10:12:47;25.60;15.10
19908;DHT22;10116;53.112;7.356;2022-12-05T10:15:29;25.60;16.10
19908;DHT22;10116;53.112;7.356;2022-12-05T10:18:16;25.60;15.00
19908;DHT22;10116;53.112;7.356;2022-12-05T10:23:25;25.60;14.70
19908;DHT22;10116;53.112;7.356;2022-12-05T10:25:57;25.60;14.60
19908;DHT22;10116;53.112;7.356;2022-12-05T10:28:35;25.60;15.10
19908;DHT22;10116;53.112;7.356;2022-12-05T10:31:07;25.50;14.70
19908;DHT22;10116;53.112;7.356;2022-12-05T10:33:39;25.50;14.40
19908;DHT22;10116;53.112;7.356;2022-12-05T10:36:11;25.50;14.50
19908;DHT22;10116;53.112;7.356;2022-12-05T10:38:37;25.50;14.90
19908;DHT22;10116;53.112;7.356;2022-12-05T10:41:09;25.60;15.10
19908;DHT22;10116;53.112;7.356;2022-12-05T10:43:37;25.60;15.40
19908;DHT22;10116;53.112;7.356;2022-12-05T10:46:04;25.60;15.70
19908;DHT22;10116;53.112;7.356;2022-12-05T10:48:34;25.60;16.20
19908;DHT22;10116;53.112;7.356;2022-12-05T10:51:01;25.70;16.10
19908;DHT22;10116;53.112;7.356;2022-12-05T10:53:45;25.70;16.20
19908;DHT22;10116;53.112;7.356;2022-12-05T10:59:09;25.60;15.60
19908;DHT22;10116;53.112;7.356;2022-12-05T11:01:36;25.60;15.70
19908;DHT22;10116;53.112;7.356;2022-12-05T11:04:41;25.60;15.60
19908;DHT22;10116;53.112;7.356;2022-12-05T11:10:21;25.50;15.20
19908;DHT22;10116;53.112;7.356;2022-12-05T11:12:47;25.50;15.00
19908;DHT22;10116;53.112;7.356;2022-12-05T11:17:46;25.50;15.20
19908;DHT22;10116;53.112;7.356;2022-12-05T11:22:40;25.50;24.70
19908;DHT22;10116;53.112;7.356;2022-12-05T11:27:56;25.50;15.40
19908;DHT22;10116;53.112;7.356;2022-12-05T11:30:24;25.50;15.90
19908;DHT22;10116;53.112;7.356;2022-12-05T11:33:14;25.50;15.50
19908;DHT22;10116;53.112;7.356;2022-12-05T11:35:42;25.50;15.60
19908;DHT22;10116;53.112;7.356;2022-12-05T11:38:10;25.40;15.50
19908;DHT22;10116;53.112;7.356;2022-12-05T11:41:08;25.40;15.40
19908;DHT22;10116;53.112;7.356;2022-12-05T11:55:28;25.40;15.10
19908;DHT22;10116;53.112;7.356;2022-12-05T11:58:09;25.30;24.90
19908;DHT22;10116;53.112;7.356;2022-12-05T12:12:09;25.40;15.50
19908;DHT22;10116;53.112;7.356;2022-12-05T12:14:37;25.40;15.70
19908;DHT22;10116;53.112;7.356;2022-12-05T12:27:54;25.40;16.20
19908;DHT22;10116;53.112;7.356;2022-12-05T12:30:54;25.40;15.80
19908;DHT22;10116;53.112;7.356;2022-12-05T12:40:54;25.30;16.10
19908;DHT22;10116;53.112;7.356;2022-12-05T12:51:02;25.40;16.60
19908;DHT22;10116;53.112;7.356;2022-12-05T12:54:04;25.40;17.50
19908;DHT22;10116;53.112;7.356;2022-12-05T13:00:10;25.40;16.90
19908;DHT22;10116;53.112;7.356;2022-12-05T13:02:44;25.40;17.60
19908;DHT22;10116;53.112;7.356;2022-12-05T13:05:34;25.40;16.80
19908;DHT22;10116;53.112;7.356;2022-12-05T13:08:23;25.40;16.90
19908;DHT22;10116;53.112;7.356;2022-12-05T13:10:51;25.40;17.20
19908;DHT22;10116;53.112;7.356;2022-12-05T13:13:27;25.40;17.30
19908;DHT22;10116;53.112;7.356;2022-12-05T13:15:57;25.40;17.60
19908;DHT22;10116;53.112;7.356;2022-12-05T13:18:25;25.40;17.10
19908;DHT22;10116;53.112;7.356;2022-12-05T13:20:54;25.40;17.30
19908;DHT22;10116;53.112;7.356;2022-12-05T13:23:23;25.40;17.20
19908;DHT22;10116;53.112;7.356;2022-12-05T13:25:52;25.40;18.20
19908;DHT22;10116;53.112;7.356;2022-12-05T13:30:54;25.40;17.60
19908;DHT22;10116;53.112;7.356;2022-12-05T13:33:29;25.40;17.70
19908;DHT22;10116;53.112;7.356;2022-12-05T13:36:08;25.40;17.60
19908;DHT22;10116;53.112;7.356;2022-12-05T13:38:59;25.40;17.70
19908;DHT22;10116;53.112;7.356;2022-12-05T13:41:52;25.40;17.60
19908;DHT22;10116;53.112;7.356;2022-12-05T13:44:44;25.40;17.20
19908;DHT22;10116;53.112;7.356;2022-12-05T13:47:31;25.40;17.70
19908;DHT22;10116;53.112;7.356;2022-12-05T13:52:53;25.40;17.50
19908;DHT22;10116;53.112;7.356;2022-12-05T13:55:35;25.30;17.50
19908;DHT22;10116;53.112;7.356;2022-12-05T14:00:49;25.30;17.60
19908;DHT22;10116;53.112;7.356;2022-12-05T14:05:45;25.30;17.70
19908;DHT22;10116;53.112;7.356;2022-12-05T14:15:49;25.30;17.70
19908;DHT22;10116;53.112;7.356;2022-12-05T14:18:20;25.40;17.80
19908;DHT22;10116;53.112;7.356;2022-12-05T14:21:07;25.40;18.60
19908;DHT22;10116;53.112;7.356;2022-12-05T14:29:47;25.50;19.50
19908;DHT22;10116;53.112;7.356;2022-12-05T14:32:33;25.60;19.60
19908;DHT22;10116;53.112;7.356;2022-12-05T14:39:59;25.60;20.10
19908;DHT22;10116;53.112;7.356;2022-12-05T14:42:36;25.60;20.00
19908;DHT22;10116;53.112;7.356;2022-12-05T14:47:55;25.60;20.00
19908;DHT22;10116;53.112;7.356;2022-12-05T14:55:44;25.60;20.00
19908;DHT22;10116;53.112;7.356;2022-12-05T14:58:40;25.60;19.80
19908;DHT22;10116;53.112;7.356;2022-12-05T15:01:24;25.60;20.00
19908;DHT22;10116;53.112;7.356;2022-12-05T15:04:05;25.60;20.40
19908;DHT22;10116;53.112;7.356;2022-12-05T15:06:34;25.60;19.70
19908;DHT22;10116;53.112;7.356;2022-12-05T15:09:05;25.60;19.90
19908;DHT22;10116;53.112;7.356;2022-12-05T15:11:33;25.60;20.00
19908;DHT22;10116;53.112;7.356;2022-12-05T15:14:13;25.50;19.90
19908;DHT22;10116;53.112;7.356;2022-12-05T15:16:43;25.60;19.70
19908;DHT22;10116;53.112;7.356;2022-12-05T15:19:40;25.50;19.70
19908;DHT22;10116;53.112;7.356;2022-12-05T15:22:08;25.50;19.70
19908;DHT22;10116;53.112;7.356;2022-12-05T15:24:37;25.50;19.70
19908;DHT22;10116;53.112;7.356;2022-12-05T15:27:04;25.50;20.00
19908;DHT22;10116;53.112;7.356;2022-12-05T15:29:30;25.50;20.10
19908;DHT22;10116;53.112;7.356;2022-12-05T15:34:56;25.50;19.50
19908;DHT22;10116;53.112;7.356;2022-12-05T15:37:49;25.50;19.70
19908;DHT22;10116;53.112;7.356;2022-12-05T15:40:17;25.50;20.50
19908;DHT22;10116;53.112;7.356;2022-12-05T15:42:48;25.50;20.10
19908;DHT22;10116;53.112;7.356;2022-12-05T15:45:15;25.50;20.40
19908;DHT22;10116;53.112;7.356;2022-12-05T15:47:46;25.50;19.90
19908;DHT22;10116;53.112;7.356;2022-12-05T15:50:18;25.50;20.60
19908;DHT22;10116;53.112;7.356;2022-12-05T15:55:49;25.50;20.60
19908;DHT22;10116;53.112;7.356;2022-12-05T15:58:40;25.50;20.60
19908;DHT22;10116;53.112;7.356;2022-12-05T16:01:21;25.50;20.00
19908;DHT22;10116;53.112;7.356;2022-12-05T16:04:11;25.50;19.60
19908;DHT22;10116;53.112;7.356;2022-12-05T16:06:43;25.50;19.90
19908;DHT22;10116;53.112;7.356;2022-12-05T16:09:19;25.50;20.40
19908;DHT22;10116;53.112;7.356;2022-12-05T16:11:56;25.50;20.10
19908;DHT22;10116;53.112;7.356;2022-12-05T16:14:27;25.60;20.20
19908;DHT22;10116;53.112;7.356;2022-12-05T16:16:59;25.60;20.30
19908;DHT22;10116;53.112;7.356;2022-12-05T16:19:26;25.60;20.40
19908;DHT22;10116;53.112;7.356;2022-12-05T16:22:01;25.60;20.40
19908;DHT22;10116;53.112;7.356;2022-12-05T16:24:32;25.60;20.40
19908;DHT22;10116;53.112;7.356;2022-12-05T16:29:37;25.60;20.50
19908;DHT22;10116;53.112;7.356;2022-12-05T16:32:11;25.60;20.90
19908;DHT22;10116;53.112;7.356;2022-12-05T16:34:39;25.60;20.90
19908;DHT22;10116;53.112;7.356;2022-12-05T16:37:04;25.60;20.90
19908;DHT22;10116;53.112;7.356;2022-12-05T16:39:32;25.60;20.50
19908;DHT22;10116;53.112;7.356;2022-12-05T16:41:58;25.60;20.80
19908;DHT22;10116;53.112;7.356;2022-12-05T16:46:56;25.60;21.40
19908;DHT22;10116;53.112;7.356;2022-12-05T16:49:32;25.60;20.90
19908;DHT22;10116;53.112;7.356;2022-12-05T16:52:07;25.60;20.80
19908;DHT22;10116;53.112;7.356;2022-12-05T16:54:36;25.60;20.90
19908;DHT22;10116;53.112;7.356;2022-12-05T16:57:03;25.60;20.90
19908;DHT22;10116;53.112;7.356;2022-12-05T16:59:33;25.60;21.60
19908;DHT22;10116;53.112;7.356;2022-12-05T17:02:01;25.60;21.40
19908;DHT22;10116;53.112;7.356;2022-12-05T17:04:27;25.60;21.20
19908;DHT22;10116;53.112;7.356;2022-12-05T17:06:53;25.60;20.80
19908;DHT22;10116;53.112;7.356;2022-12-05T17:09:18;25.60;21.10
19908;DHT22;10116;53.112;7.356;2022-12-05T17:11:45;25.60;21.20
19908;DHT22;10116;53.112;7.356;2022-12-05T17:14:14;25.60;21.30
19908;DHT22;10116;53.112;7.356;2022-12-05T17:16:43;25.60;21.20
19908;DHT22;10116;53.112;7.356;2022-12-05T17:19:12;25.60;21.00
19908;DHT22;10116;53.112;7.356;2022-12-05T17:21:39;25.60;21.30
19908;DHT22;10116;53.112;7.356;2022-12-05T17:24:09;25.60;21.50
19908;DHT22;10116;53.112;7.356;2022-12-05T17:26:37;25.60;21.10
19908;DHT22;10116;53.112;7.356;2022-12-05T17:29:03;25.60;21.10
19908;DHT22;10116;53.112;7.356;2022-12-05T17:31:29;25.60;22.10
19908;DHT22;10116;53.112;7.356;2022-12-05T17:33:55;25.60;21.50
19908;DHT22;10116;53.112;7.356;2022-12-05T17:36:20;25.60;21.20
19908;DHT22;10116;53.112;7.356;2022-12-05T17:38:46;25.60;21.60
19908;DHT22;10116;53.112;7.356;2022-12-05T17:41:17;25.60;21.00
19908;DHT22;10116;53.112;7.356;2022-12-05T17:43:44;25.60;21.40
19908;DHT22;10116;53.112;7.356;2022-12-05T17:46:12;25.60;21.60
19908;DHT22;10116;53.112;7.356;2022-12-05T17:48:39;25.60;21.80
19908;DHT22;10116;53.112;7.356;2022-12-05T17:51:04;25.60;21.70
19908;DHT22;10116;53.112;7.356;2022-12-05T17:53:35;25.70;22.20
19908;DHT22;10116;53.112;7.356;2022-12-05T17:56:01;25.70;22.40
19908;DHT22;10116;53.112;7.356;2022-12-05T17:58:27;25.70;22.50
19908;DHT22;10116;53.112;7.356;2022-12-05T18:00:53;25.80;23.10
19908;DHT22;10116;53.112;7.356;2022-12-05T18:03:18;25.80;22.70
19908;DHT22;10116;53.112;7.356;2022-12-05T18:05:44;25.80;22.80
19908;DHT22;10116;53.112;7.356;2022-12-05T18:08:11;25.80;22.90
19908;DHT22;10116;53.112;7.356;2022-12-05T18:10:40;25.80;22.90
19908;DHT22;10116;53.112;7.356;2022-12-05T18:13:07;25.80;23.20
19908;DHT22;10116;53.112;7.356;2022-12-05T18:15:32;25.80;33.00
19908;DHT22;10116;53.112;7.356;2022-12-05T18:17:58;25.80;22.80
19908;DHT22;10116;53.112;7.356;2022-12-05T18:20:27;25.80;23.00
19908;DHT22;10116;53.112;7.356;2022-12-05T18:22:54;25.80;24.00
19908;DHT22;10116;53.112;7.356;2022-12-05T18:25:19;25.80;23.20
19908;DHT22;10116;53.112;7.356;2022-12-05T18:27:45;25.80;22.60
19908;DHT22;10116;53.112;7.356;2022-12-05T18:30:11;25.80;23.40
19908;DHT22;10116;53.112;7.356;2022-12-05T18:32:37;25.80;22.40
19908;DHT22;10116;53.112;7.356;2022-12-05T18:35:03;25.80;22.40
19908;DHT22;10116;53.112;7.356;2022-12-05T18:37:33;25.80;22.60
19908;DHT22;10116;53.112;7.356;2022-12-05T18:39:59;25.80;23.20
19908;DHT22;10116;53.112;7.356;2022-12-05T18:42:24;25.80;22.80